sensor_id;sensor_type;location;lat;lon;timestamp;temperature;humidity
21318;DHT22;10818;50.830;6.524;2023-01-30T00:01:10;4.90;99.90
21318;DHT22;10818;50.830;6.524;2023-01-30T00:06:12;5.00;99.90
21318;DHT22;10818;50.830;6.524;2023-01-30T00:11:13;4.90;99.90
21318;DHT22;10818;50.830;6.524;2023-01-30T00:16:14;4.90;99.90
21318;DHT22;10818;50.830;6.524;2023-01-30T00:21:14;5.00;99.90
21318;DHT22;10818;50.830;6.524;2023-01-30T00:26:15;4.90;99.90
21318;DHT22;10818;50.830;6.524;2023-01-30T00:31:15;4.90;99.90
21318;DHT22;10818;50.830;6.524;2023-01-30T00:36:16;5.00;99.90
21318;DHT22;10818;50.830;6.524;2023-01-30T00:41:16;5.00;99.90
21318;DHT22;10818;50.830;6.524;2023-01-30T00:46:30;5.00;99.90
21318;DHT22;10818;50.830;6.524;2023-01-30T00:51:50;5.00;99.90
21318;DHT22;10818;50.830;6.524;2023-01-30T00:56:51;5.20;99.90
21318;DHT22;10818;50.830;6.524;2023-01-30T01:01:51;5.20;99.90
21318;DHT22;10818;50.830;6.524;2023-01-30T01:06:51;5.20;99.90
21318;DHT22;10818;50.830;6.524;2023-01-30T01:11:52;5.20;99.90
21318;DHT22;10818;50.830;6.524;2023-01-30T01:16:52;5.10;99.90
21318;DHT22;10818;50.830;6.524;2023-01-30T01:21:53;5.10;99.90
21318;DHT22;10818;50.830;6.524;2023-01-30T01:26:53;5.20;99.90
21318;DHT22;10818;50.830;6.524;2023-01-30T01:31:54;5.30;99.90
21318;DHT22;10818;50.830;6.524;2023-01-30T01:36:56;5.20;99.90
21318;DHT22;10818;50.830;6.524;2023-01-30T01:41:57;5.20;99.90
21318;DHT22;10818;50.830;6.524;2023-01-30T01:46:57;5.10;99.90
21318;DHT22;10818;50.830;6.524;2023-01-30T01:57:00;5.20;99.90
21318;DHT22;10818;50.830;6.524;2023-01-30T02:02:02;5.20;99.90
21318;DHT22;10818;50.830;6.524;2023-01-30T02:07:04;5.20;99.90
21318;DHT22;10818;50.830;6.524;2023-01-30T02:12:05;5.10;99.90
21318;DHT22;10818;50.830;6.524;2023-01-30T02:17:05;5.10;99.90
21318;DHT22;10818;50.830;6.524;2023-01-30T02:43:18;5.10;99.90
21318;DHT22;10818;50.830;6.524;2023-01-30T02:48:22;5.10;99.90
21318;DHT22;10818;50.830;6.524;2023-01-30T02:53:24;5.10;99.90
21318;DHT22;10818;50.830;6.524;2023-01-30T02:58:25;5.10;99.90
21318;DHT22;10818;50.830;6.524;2023-01-30T03:09:02;5.10;99.90
21318;DHT22;10818;50.830;6.524;2023-01-30T03:14:11;5.10;99.90
21318;DHT22;10818;50.830;6.524;2023-01-30T03:19:16;5.00;99.90
21318;DHT22;10818;50.830;6.524;2023-01-30T03:24:18;5.00;99.90
21318;DHT22;10818;50.830;6.524;2023-01-30T03:29:19;5.00;99.90
21318;DHT22;10818;50.830;6.524;2023-01-30T03:34:19;5.10;99.90
21318;DHT22;10818;50.830;6.524;2023-01-30T03:39:19;5.20;99.90
21318;DHT22;10818;50.830;6.524;2023-01-30T03:44:20;5.20;99.90
21318;DHT22;10818;50.830;6.524;2023-01-30T03:49:21;5.30;99.90
21318;DHT22;10818;50.830;6.524;2023-01-30T03:54:21;5.40;99.90
21318;DHT22;10818;50.830;6.524;2023-01-30T03:59:22;5.40;99.90
21318;DHT22;10818;50.830;6.524;2023-01-30T04:04:22;5.50;99.90
21318;DHT22;10818;50.830;6.524;2023-01-30T04:09:22;5.50;99.90
21318;DHT22;10818;50.830;6.524;2023-01-30T04:14:23;5.70;99.90
21318;DHT22;10818;50.830;6.524;2023-01-30T04:19:23;5.70;99.90
21318;DHT22;10818;50.830;6.524;2023-01-30T04:24:24;5.70;99.90
21318;DHT22;10818;50.830;6.524;2023-01-30T04:29:24;5.80;99.90
21318;DHT22;10818;50.830;6.524;2023-01-30T04:34:25;5.70;99.90
21318;DHT22;10818;50.830;6.524;2023-01-30T04:39:25;5.80;99.90
21318;DHT22;10818;50.830;6.524;2023-01-30T04:44:26;5.70;99.90
21318;DHT22;10818;50.830;6.524;2023-01-30T04:49:26;5.80;99.90
21318;DHT22;10818;50.830;6.524;2023-01-30T04:54:27;5.80;99.90
21318;DHT22;10818;50.830;6.524;2023-01-30T04:59:27;5.90;99.90
21318;DHT22;10818;50.830;6.524;2023-01-30T05:04:28;5.70;99.90
21318;DHT22;10818;50.830;6.524;2023-01-30T05:09:28;5.80;99.90
21318;DHT22;10818;50.830;6.524;2023-01-30T05:14:29;5.70;99.90
21318;DHT22;10818;50.830;6.524;2023-01-30T05:19:29;5.60;99.90
21318;DHT22;10818;50.830;6.524;2023-01-30T05:24:30;5.60;99.90
21318;DHT22;10818;50.830;6.524;2023-01-30T05:29:30;5.70;99.90
21318;DHT22;10818;50.830;6.524;2023-01-30T05:34:30;5.60;99.90
21318;DHT22;10818;50.830;6.524;2023-01-30T05:39:31;5.50;99.90
21318;DHT22;10818;50.830;6.524;2023-01-30T05:44:31;5.60;99.90
21318;DHT22;10818;50.830;6.524;2023-01-30T05:49:32;5.40;99.90
21318;DHT22;10818;50.830;6.524;2023-01-30T05:54:33;5.40;99.90
21318;DHT22;10818;50.830;6.524;2023-01-30T05:59:34;5.50;99.90
21318;DHT22;10818;50.830;6.524;2023-01-30T06:04:34;5.40;99.90
21318;DHT22;10818;50.830;6.524;2023-01-30T06:09:34;5.50;99.90
21318;DHT22;10818;50.830;6.524;2023-01-30T06:14:35;5.40;99.90
21318;DHT22;10818;50.830;6.524;2023-01-30T06:19:35;5.40;99.90
21318;DHT22;10818;50.830;6.524;2023-01-30T06:24:36;5.50;99.90
21318;DHT22;10818;50.830;6.524;2023-01-30T06:29:36;5.50;99.90
21318;DHT22;10818;50.830;6.524;2023-01-30T06:34:37;5.50;99.90
21318;DHT22;10818;50.830;6.524;2023-01-30T06:39:37;5.50;99.90
21318;DHT22;10818;50.830;6.524;2023-01-30T06:44:37;5.60;99.90
21318;DHT22;10818;50.830;6.524;2023-01-30T06:49:38;5.50;99.90
21318;DHT22;10818;50.830;6.524;2023-01-30T06:54:38;5.60;99.90
21318;DHT22;10818;50.830;6.524;2023-01-30T06:59:39;5.70;99.90
21318;DHT22;10818;50.830;6.524;2023-01-30T07:04:39;5.70;99.90
21318;DHT22;10818;50.830;6.524;2023-01-30T07:09:40;5.70;99.90
21318;DHT22;10818;50.830;6.524;2023-01-30T07:14:41;5.80;99.90
21318;DHT22;10818;50.830;6.524;2023-01-30T07:19:42;5.80;99.90
21318;DHT22;10818;50.830;6.524;2023-01-30T07:24:42;5.80;99.90
21318;DHT22;10818;50.830;6.524;2023-01-30T07:29:43;5.90;99.90
21318;DHT22;10818;50.830;6.524;2023-01-30T07:34:43;5.90;99.90
21318;DHT22;10818;50.830;6.524;2023-01-30T07:39:44;6.00;99.90
21318;DHT22;10818;50.830;6.524;2023-01-30T07:44:44;6.20;99.90
21318;DHT22;10818;50.830;6.524;2023-01-30T07:49:45;6.20;99.90
21318;DHT22;10818;50.830;6.524;2023-01-30T07:54:45;6.40;99.90
21318;DHT22;10818;50.830;6.524;2023-01-30T07:59:45;6.50;99.90
21318;DHT22;10818;50.830;6.524;2023-01-30T08:04:46;6.50;99.90
21318;DHT22;10818;50.830;6.524;2023-01-30T08:09:46;6.70;99.90
21318;DHT22;10818;50.830;6.524;2023-01-30T08:14:48;6.70;99.90
21318;DHT22;10818;50.830;6.524;2023-01-30T08:19:49;7.20;99.90
21318;DHT22;10818;50.830;6.524;2023-01-30T08:24:49;7.10;99.90
21318;DHT22;10818;50.830;6.524;2023-01-30T08:29:50;7.00;99.90
21318;DHT22;10818;50.830;6.524;2023-01-30T08:34:50;7.20;99.90
21318;DHT22;10818;50.830;6.524;2023-01-30T08:39:51;9.00;99.90
21318;DHT22;10818;50.830;6.524;2023-01-30T08:44:51;9.40;99.90
21318;DHT22;10818;50.830;6.524;2023-01-30T08:49:52;11.90;99.90
21318;DHT22;10818;50.830;6.524;2023-01-30T08:54:52;14.90;99.90
21318;DHT22;10818;50.830;6.524;2023-01-30T08:59:53;17.10;99.90
21318;DHT22;10818;50.830;6.524;2023-01-30T09:04:53;18.90;99.90
21318;DHT22;10818;50.830;6.524;2023-01-30T09:09:54;19.90;99.90
21318;DHT22;10818;50.830;6.524;2023-01-30T09:14:54;19.20;99.90
21318;DHT22;10818;50.830;6.524;2023-01-30T09:19:57;16.10;99.90
21318;DHT22;10818;50.830;6.524;2023-01-30T09:24:57;15.20;99.90
21318;DHT22;10818;50.830;6.524;2023-01-30T09:29:58;14.60;99.90
21318;DHT22;10818;50.830;6.524;2023-01-30T09:34:58;17.60;99.90
21318;DHT22;10818;50.830;6.524;2023-01-30T09:39:59;19.90;99.90
21318;DHT22;10818;50.830;6.524;2023-01-30T09:45:10;21.00;99.90
21318;DHT22;10818;50.830;6.524;2023-01-30T09:55:16;15.00;99.90
21318;DHT22;10818;50.830;6.524;2023-01-30T10:00:26;12.20;99.90
21318;DHT22;10818;50.830;6.524;2023-01-30T10:05:35;11.20;99.90
21318;DHT22;10818;50.830;6.524;2023-01-30T10:10:42;10.30;99.90
21318;DHT22;10818;50.830;6.524;2023-01-30T10:16:04;9.90;99.90
21318;DHT22;10818;50.830;6.524;2023-01-30T10:21:13;9.70;99.90
21318;DHT22;10818;50.830;6.524;2023-01-30T10:26:17;9.90;99.90
21318;DHT22;10818;50.830;6.524;2023-01-30T10:31:19;9.90;99.90
21318;DHT22;10818;50.830;6.524;2023-01-30T10:36:24;9.60;99.90
21318;DHT22;10818;50.830;6.524;2023-01-30T10:41:31;9.70;99.90
21318;DHT22;10818;50.830;6.524;2023-01-30T10:46:38;9.70;99.90
21318;DHT22;10818;50.830;6.524;2023-01-30T10:51:43;9.40;99.90
21318;DHT22;10818;50.830;6.524;2023-01-30T10:57:02;9.80;99.90
21318;DHT22;10818;50.830;6.524;2023-01-30T11:02:23;9.50;99.90
21318;DHT22;10818;50.830;6.524;2023-01-30T11:07:31;9.30;99.90
21318;DHT22;10818;50.830;6.524;2023-01-30T11:12:32;9.30;99.90
21318;DHT22;10818;50.830;6.524;2023-01-30T11:17:33;9.10;99.90
21318;DHT22;10818;50.830;6.524;2023-01-30T11:22:35;8.90;99.90
21318;DHT22;10818;50.830;6.524;2023-01-30T11:27:36;9.10;99.90
21318;DHT22;10818;50.830;6.524;2023-01-30T11:32:36;9.00;99.90
21318;DHT22;10818;50.830;6.524;2023-01-30T11:37:38;9.00;99.90
21318;DHT22;10818;50.830;6.524;2023-01-30T11:42:38;9.10;99.90
21318;DHT22;10818;50.830;6.524;2023-01-30T11:47:50;9.00;99.90
21318;DHT22;10818;50.830;6.524;2023-01-30T11:52:52;9.10;99.90
21318;DHT22;10818;50.830;6.524;2023-01-30T11:57:52;9.30;99.90
21318;DHT22;10818;50.830;6.524;2023-01-30T12:02:57;9.20;99.90
21318;DHT22;10818;50.830;6.524;2023-01-30T12:08:37;9.10;99.90
21318;DHT22;10818;50.830;6.524;2023-01-30T12:13:32;8.90;99.90
21318;DHT22;10818;50.830;6.524;2023-01-30T12:18:35;8.60;99.90
21318;DHT22;10818;50.830;6.524;2023-01-30T12:33:40;8.40;99.90
21318;DHT22;10818;50.830;6.524;2023-01-30T12:49:07;8.40;99.90
21318;DHT22;10818;50.830;6.524;2023-01-30T13:04:55;8.30;99.90
21318;DHT22;10818;50.830;6.524;2023-01-30T13:30:17;8.40;99.90
21318;DHT22;10818;50.830;6.524;2023-01-30T13:35:30;8.50;99.90
21318;DHT22;10818;50.830;6.524;2023-01-30T13:40:32;8.50;99.90
21318;DHT22;10818;50.830;6.524;2023-01-30T13:45:35;8.70;99.90
21318;DHT22;10818;50.830;6.524;2023-01-30T14:06:54;8.80;99.90
21318;DHT22;10818;50.830;6.524;2023-01-30T14:12:13;8.70;99.90
21318;DHT22;10818;50.830;6.524;2023-01-30T14:17:15;8.60;99.90
21318;DHT22;10818;50.830;6.524;2023-01-30T14:22:27;8.40;99.90
21318;DHT22;10818;50.830;6.524;2023-01-30T14:27:30;8.40;99.90
21318;DHT22;10818;50.830;6.524;2023-01-30T14:32:49;8.30;99.90
21318;DHT22;10818;50.830;6.524;2023-01-30T14:37:51;8.40;99.90
21318;DHT22;10818;50.830;6.524;2023-01-30T14:53:23;8.20;99.90
21318;DHT22;10818;50.830;6.524;2023-01-30T14:58:23;8.10;99.90
21318;DHT22;10818;50.830;6.524;2023-01-30T15:03:24;8.20;99.90
21318;DHT22;10818;50.830;6.524;2023-01-30T15:08:24;8.10;99.90
21318;DHT22;10818;50.830;6.524;2023-01-30T15:23:46;7.70;99.90
21318;DHT22;10818;50.830;6.524;2023-01-30T15:29:24;7.70;99.90
21318;DHT22;10818;50.830;6.524;2023-01-30T15:34:18;7.80;99.90
21318;DHT22;10818;50.830;6.524;2023-01-30T15:39:22;7.80;99.90
21318;DHT22;10818;50.830;6.524;2023-01-30T15:44:27;7.70;99.90
21318;DHT22;10818;50.830;6.524;2023-01-30T15:54:31;7.50;99.90
21318;DHT22;10818;50.830;6.524;2023-01-30T15:59:32;7.60;99.90
21318;DHT22;10818;50.830;6.524;2023-01-30T16:04:35;7.50;99.90
21318;DHT22;10818;50.830;6.524;2023-01-30T16:09:35;7.50;99.90
21318;DHT22;10818;50.830;6.524;2023-01-30T16:14:36;7.30;99.90
21318;DHT22;10818;50.830;6.524;2023-01-30T16:19:37;7.10;99.90
21318;DHT22;10818;50.830;6.524;2023-01-30T16:24:41;6.90;99.90
21318;DHT22;10818;50.830;6.524;2023-01-30T16:29:47;6.70;99.90
21318;DHT22;10818;50.830;6.524;2023-01-30T16:34:50;6.60;99.90
21318;DHT22;10818;50.830;6.524;2023-01-30T16:50:18;6.30;99.90
21318;DHT22;10818;50.830;6.524;2023-01-30T16:55:19;6.30;99.90
21318;DHT22;10818;50.830;6.524;2023-01-30T17:05:39;6.40;99.90
21318;DHT22;10818;50.830;6.524;2023-01-30T17:10:49;6.50;99.90
21318;DHT22;10818;50.830;6.524;2023-01-30T17:15:51;6.60;99.90
21318;DHT22;10818;50.830;6.524;2023-01-30T17:20:51;6.60;99.90
21318;DHT22;10818;50.830;6.524;2023-01-30T17:25:52;6.50;99.90
21318;DHT22;10818;50.830;6.524;2023-01-30T17:30:52;6.40;99.90
21318;DHT22;10818;50.830;6.524;2023-01-30T17:35:52;6.20;99.90
21318;DHT22;10818;50.830;6.524;2023-01-30T17:40:53;6.10;99.90
21318;DHT22;10818;50.830;6.524;2023-01-30T17:45:53;6.00;99.90
21318;DHT22;10818;50.830;6.524;2023-01-30T17:50:54;5.90;99.90
21318;DHT22;10818;50.830;6.524;2023-01-30T17:55:54;5.90;99.90
21318;DHT22;10818;50.830;6.524;2023-01-30T18:00:55;5.80;99.90
21318;DHT22;10818;50.830;6.524;2023-01-30T18:05:55;5.70;99.90
21318;DHT22;10818;50.830;6.524;2023-01-30T18:10:56;5.70;99.90
21318;DHT22;10818;50.830;6.524;2023-01-30T18:15:57;5.70;99.90
21318;DHT22;10818;50.830;6.524;2023-01-30T18:20:59;5.70;99.90
21318;DHT22;10818;50.830;6.524;2023-01-30T18:25:59;5.60;99.90
21318;DHT22;10818;50.830;6.524;2023-01-30T18:31:00;5.60;99.90
21318;DHT22;10818;50.830;6.524;2023-01-30T18:36:07;5.60;99.90
21318;DHT22;10818;50.830;6.524;2023-01-30T18:41:15;5.50;99.90
21318;DHT22;10818;50.830;6.524;2023-01-30T18:46:16;5.70;99.90
21318;DHT22;10818;50.830;6.524;2023-01-30T18:51:18;5.90;99.90
21318;DHT22;10818;50.830;6.524;2023-01-30T18:56:20;6.10;99.90
21318;DHT22;10818;50.830;6.524;2023-01-30T19:01:21;6.20;99.90
21318;DHT22;10818;50.830;6.524;2023-01-30T19:06:22;6.30;99.90
21318;DHT22;10818;50.830;6.524;2023-01-30T19:11:23;6.40;99.90
21318;DHT22;10818;50.830;6.524;2023-01-30T19:16:42;6.50;99.90
21318;DHT22;10818;50.830;6.524;2023-01-30T19:21:43;6.60;99.90
21318;DHT22;10818;50.830;6.524;2023-01-30T19:26:44;6.50;99.90
21318;DHT22;10818;50.830;6.524;2023-01-30T19:31:44;6.60;99.90
21318;DHT22;10818;50.830;6.524;2023-01-30T19:36:46;6.60;99.90
21318;DHT22;10818;50.830;6.524;2023-01-30T19:41:46;6.50;99.90
21318;DHT22;10818;50.830;6.524;2023-01-30T19:46:47;6.40;99.90
21318;DHT22;10818;50.830;6.524;2023-01-30T19:51:48;6.40;99.90
21318;DHT22;10818;50.830;6.524;2023-01-30T19:56:48;6.40;99.90
21318;DHT22;10818;50.830;6.524;2023-01-30T20:01:49;6.50;99.90
21318;DHT22;10818;50.830;6.524;2023-01-30T20:06:49;6.40;99.90
21318;DHT22;10818;50.830;6.524;2023-01-30T20:11:50;6.40;99.90
21318;DHT22;10818;50.830;6.524;2023-01-30T20:16:50;6.30;99.90
21318;DHT22;10818;50.830;6.524;2023-01-30T20:21:52;6.10;99.90
21318;DHT22;10818;50.830;6.524;2023-01-30T20:26:53;6.10;99.90
21318;DHT22;10818;50.830;6.524;2023-01-30T20:31:53;6.20;99.90
21318;DHT22;10818;50.830;6.524;2023-01-30T20:36:53;6.20;99.90
21318;DHT22;10818;50.830;6.524;2023-01-30T20:41:54;6.20;99.90
21318;DHT22;10818;50.830;6.524;2023-01-30T20:46:54;6.20;99.90
21318;DHT22;10818;50.830;6.524;2023-01-30T20:51:55;6.10;99.90
21318;DHT22;10818;50.830;6.524;2023-01-30T20:56:56;6.10;99.90
21318;DHT22;10818;50.830;6.524;2023-01-30T21:01:56;6.00;99.90
21318;DHT22;10818;50.830;6.524;2023-01-30T21:06:57;6.00;99.90
21318;DHT22;10818;50.830;6.524;2023-01-30T21:11:57;6.00;99.90
21318;DHT22;10818;50.830;6.524;2023-01-30T21:16:58;6.10;99.90
21318;DHT22;10818;50.830;6.524;2023-01-30T21:21:58;6.10;99.90
21318;DHT22;10818;50.830;6.524;2023-01-30T21:27:03;5.90;99.90
21318;DHT22;10818;50.830;6.524;2023-01-30T21:32:04;5.90;99.90
21318;DHT22;10818;50.830;6.524;2023-01-30T21:37:04;5.80;99.90
21318;DHT22;10818;50.830;6.524;2023-01-30T21:42:23;5.80;99.90
21318;DHT22;10818;50.830;6.524;2023-01-30T21:47:43;5.70;99.90
21318;DHT22;10818;50.830;6.524;2023-01-30T21:52:43;5.60;99.90
21318;DHT22;10818;50.830;6.524;2023-01-30T21:57:43;5.60;99.90
21318;DHT22;10818;50.830;6.524;2023-01-30T22:02:47;5.50;99.90
21318;DHT22;10818;50.830;6.524;2023-01-30T22:07:48;5.40;99.90
21318;DHT22;10818;50.830;6.524;2023-01-30T22:12:48;5.30;99.90
21318;DHT22;10818;50.830;6.524;2023-01-30T22:17:48;5.50;99.90
21318;DHT22;10818;50.830;6.524;2023-01-30T22:22:49;5.60;99.90
21318;DHT22;10818;50.830;6.524;2023-01-30T22:27:49;5.60;99.90
21318;DHT22;10818;50.830;6.524;2023-01-30T22:32:51;5.70;99.90
21318;DHT22;10818;50.830;6.524;2023-01-30T22:37:52;5.80;99.90
21318;DHT22;10818;50.830;6.524;2023-01-30T22:42:52;5.80;99.90
21318;DHT22;10818;50.830;6.524;2023-01-30T22:47:53;5.80;99.90
21318;DHT22;10818;50.830;6.524;2023-01-30T22:52:54;5.80;99.90
21318;DHT22;10818;50.830;6.524;2023-01-30T22:57:54;5.80;99.90
21318;DHT22;10818;50.830;6.524;2023-01-30T23:02:55;5.70;99.90
21318;DHT22;10818;50.830;6.524;2023-01-30T23:07:55;5.80;99.90
21318;DHT22;10818;50.830;6.524;2023-01-30T23:12:56;5.80;99.90
21318;DHT22;10818;50.830;6.524;2023-01-30T23:18:07;5.80;99.90
21318;DHT22;10818;50.830;6.524;2023-01-30T23:23:26;5.80;99.90
21318;DHT22;10818;50.830;6.524;2023-01-30T23:28:27;5.80;99.90
21318;DHT22;10818;50.830;6.524;2023-01-30T23:33:27;5.80;99.90
21318;DHT22;10818;50.830;6.524;2023-01-30T23:38:28;5.80;99.90
21318;DHT22;10818;50.830;6.524;2023-01-30T23:43:28;5.80;99.90
21318;DHT22;10818;50.830;6.524;2023-01-30T23:48:30;5.60;99.90
21318;DHT22;10818;50.830;6.524;2023-01-30T23:53:30;5.60;99.90
21318;DHT22;10818;50.830;6.524;2023-01-30T23:58:31;5.60;99.90
